Time;durP1;ratioP1;P1;durP2;ratioP2;P2;SDS_P1;SDS_P2;PMS_P1;PMS_P2;Temp;Humidity;BMP_temperature;BMP_pressure;BME280_temperature;BME280_humidity;BME280_pressure;Samples;Min_cycle;Max_cycle;Signal;HPM_P1;HPM_P2
2023/08/14 07:10:20;;;;;;;6.72;1.83;;;;;;;22.05;84.89;96559.47;2088025;27;20543;-61
2023/08/14 07:12:46;;;;;;;6.63;2.10;;;;;;;22.46;82.93;96561.94;2103916;27;20579;-60
2023/08/14 07:13:47;;;;;;;2.50;1.40;;;;;;;22.39;82.00;96556.38;2103881;28;20218;-60
2023/08/14 07:14:49;;;;;;;3.22;1.50;;;;;;;22.48;81.75;96554.66;2103521;28;20198;-60
2023/08/14 07:15:52;;;;;;;3.80;1.60;;;;;;;22.67;81.66;96562.56;2095854;27;20269;-62
2023/08/14 07:16:53;;;;;;;3.22;1.90;;;;;;;22.85;81.27;96564.44;2095452;28;20196;-63
2023/08/14 07:17:55;;;;;;;4.15;1.70;;;;;;;22.79;81.15;96562.38;2095287;28;20191;-63
2023/08/14 07:18:57;;;;;;;3.35;1.77;;;;;;;22.88;79.89;96574.81;2095268;28;20196;-63
2023/08/14 07:19:58;;;;;;;3.03;1.58;;;;;;;22.96;81.94;96555.44;2095255;28;20208;-62
2023/08/14 07:21:00;;;;;;;7.53;1.83;;;;;;;23.08;80.55;96564.88;2094944;28;20223;-62
2023/08/14 07:22:01;;;;;;;3.30;1.70;;;;;;;23.28;79.28;96562.97;2095420;28;20593;-63
2023/08/14 07:23:03;;;;;;;3.42;1.50;;;;;;;23.71;80.44;96554.41;2095090;28;20200;-62
2023/08/14 07:24:05;;;;;;;2.80;1.20;;;;;;;23.84;77.29;96556.69;2095379;28;20230;-64
2023/08/14 07:25:06;;;;;;;5.82;1.63;;;;;;;24.00;76.43;96556.00;2094925;28;20541;-64
2023/08/14 07:26:14;;;;;;;5.20;1.58;;;;;;;24.04;76.59;96560.06;2095377;28;20200;-64
2023/08/14 07:27:17;;;;;;;3.95;1.60;;;;;;;24.19;75.73;96566.50;2093948;28;20202;-64
2023/08/14 07:28:18;;;;;;;4.13;1.60;;;;;;;24.28;75.84;96557.53;2095291;28;20674;-64
2023/08/14 07:29:19;;;;;;;5.30;1.58;;;;;;;24.33;75.46;96558.91;2094960;28;20192;-64
2023/08/14 07:30:21;;;;;;;2.50;1.40;;;;;;;24.52;77.27;96557.84;2094466;28;20249;-64
2023/08/14 07:31:22;;;;;;;8.93;1.45;;;;;;;24.63;75.95;96552.22;2095162;28;20685;-64
2023/08/14 07:32:24;;;;;;;2.40;1.35;;;;;;;25.12;73.67;96553.50;2094983;28;20245;-65
2023/08/14 07:33:26;;;;;;;5.57;1.25;;;;;;;24.69;73.54;96556.16;2095021;28;20245;-65
2023/08/14 07:34:28;;;;;;;2.60;1.40;;;;;;;25.34;72.28;96560.88;2095399;28;20238;-65
2023/08/14 07:35:29;;;;;;;3.42;1.65;;;;;;;25.33;73.68;96556.56;2093201;28;20227;-64
2023/08/14 07:36:30;;;;;;;2.40;1.50;;;;;;;25.58;71.24;96559.28;2094846;28;20237;-64
2023/08/14 07:37:32;;;;;;;5.45;2.40;;;;;;;25.46;72.96;96561.44;2095264;28;20611;-64
2023/08/14 07:38:33;;;;;;;3.65;2.08;;;;;;;25.36;71.20;96555.41;2094955;28;20200;-65
2023/08/14 07:39:35;;;;;;;8.15;1.55;;;;;;;25.26;72.43;96556.34;2094445;28;20204;-65
2023/08/14 07:40:36;;;;;;;2.42;1.30;;;;;;;25.26;72.02;96556.34;2094390;28;20275;-65
2023/08/14 07:41:38;;;;;;;4.40;1.35;;;;;;;25.65;71.64;96554.97;2095094;28;20196;-65
2023/08/14 07:42:39;;;;;;;4.95;1.85;;;;;;;26.01;71.55;96561.81;2094970;28;20188;-65
2023/08/14 07:43:40;;;;;;;5.10;1.48;;;;;;;25.71;70.84;96556.13;2095141;28;20207;-65
2023/08/14 07:44:42;;;;;;;5.22;1.33;;;;;;;25.65;72.01;96562.13;2095233;28;20682;-65
2023/08/14 07:45:43;;;;;;;5.65;1.70;;;;;;;25.47;72.11;96565.81;2094657;28;20334;-65
2023/08/14 07:46:45;;;;;;;1.83;1.17;;;;;;;25.52;73.18;96567.97;2095010;28;20234;-65
2023/08/14 07:47:46;;;;;;;6.35;1.80;;;;;;;25.60;71.53;96565.31;2095359;28;20218;-64
2023/08/14 07:48:48;;;;;;;2.20;1.40;;;;;;;25.70;71.23;96566.00;2095529;28;20200;-65
2023/08/14 07:49:49;;;;;;;2.35;1.30;;;;;;;25.81;70.86;96564.81;2095181;28;20192;-64
2023/08/14 07:50:52;;;;;;;4.35;1.58;;;;;;;25.53;71.88;96562.44;2094166;28;20269;-64
2023/08/14 07:51:54;;;;;;;3.55;2.00;;;;;;;25.45;72.44;96566.97;2094874;28;20290;-65
2023/08/14 07:52:55;;;;;;;4.32;2.00;;;;;;;25.59;70.99;96560.97;2094829;28;20200;-64
2023/08/14 07:53:57;;;;;;;4.10;1.60;;;;;;;25.76;71.59;96559.13;2094820;28;20646;-65
2023/08/14 07:54:58;;;;;;;4.45;2.00;;;;;;;25.56;71.51;96559.47;2095049;28;20245;-64
2023/08/14 07:56:00;;;;;;;5.38;1.85;;;;;;;25.69;71.83;96560.81;2094246;28;20315;-64
2023/08/14 07:57:01;;;;;;;5.57;1.90;;;;;;;25.73;72.65;96554.13;2095152;28;20740;-64
2023/08/14 07:58:03;;;;;;;5.63;1.83;;;;;;;25.98;72.12;96559.47;2095551;28;20286;-64
2023/08/14 07:59:05;;;;;;;5.75;1.50;;;;;;;26.13;71.74;96565.03;2095362;28;20200;-64
2023/08/14 08:00:08;;;;;;;3.50;1.70;;;;;;;26.26;71.35;96559.16;2093701;28;20558;-64
2023/08/14 08:01:10;;;;;;;3.65;1.80;;;;;;;26.12;71.70;96572.22;2095201;28;20547;-64
2023/08/14 08:02:12;;;;;;;5.88;1.63;;;;;;;25.62;71.54;96567.81;2094033;28;20222;-64
2023/08/14 08:03:13;;;;;;;3.90;1.80;;;;;;;25.57;73.14;96563.81;2095159;28;20609;-64
2023/08/14 08:04:15;;;;;;;4.32;1.35;;;;;;;25.49;73.27;96571.81;2095113;28;20203;-65
2023/08/14 08:05:19;;;;;;;4.97;2.10;;;;;;;25.38;72.93;96570.28;2093183;28;20207;-64
2023/08/14 08:06:21;;;;;;;4.88;1.80;;;;;;;25.46;74.11;96565.94;2094852;28;20195;-64
2023/08/14 08:07:22;;;;;;;4.82;2.42;;;;;;;25.68;74.32;96573.34;2095090;28;20635;-64
2023/08/14 08:08:26;;;;;;;6.00;2.08;;;;;;;25.64;74.61;96574.66;2095009;28;20282;-64
2023/08/14 08:09:27;;;;;;;6.93;2.15;;;;;;;25.73;73.75;96570.16;2094753;28;20253;-64
2023/08/14 08:10:29;;;;;;;4.07;2.15;;;;;;;25.85;74.22;96576.88;2093717;28;20239;-64
2023/08/14 08:11:31;;;;;;;10.43;2.20;;;;;;;25.43;73.97;96573.31;2111047;28;20756;-64
2023/08/14 08:12:32;;;;;;;4.13;1.92;;;;;;;25.65;73.89;96578.16;2109053;28;20313;-64
2023/08/14 08:13:34;;;;;;;5.20;2.20;;;;;;;25.70;73.75;96578.50;2094912;28;20766;-64
2023/08/14 08:14:36;;;;;;;2.60;1.77;;;;;;;25.67;74.02;96585.03;2094869;28;20199;-64
2023/08/14 08:15:37;;;;;;;4.97;1.80;;;;;;;25.92;73.90;96587.72;2093680;28;20224;-64
2023/08/14 08:16:39;;;;;;;5.15;1.70;;;;;;;25.92;73.69;96587.72;2094902;28;20555;-64
2023/08/14 08:17:41;;;;;;;4.00;2.15;;;;;;;26.14;72.75;96588.94;2094239;28;20196;-63
2023/08/14 08:18:43;;;;;;;3.33;1.50;;;;;;;26.23;72.37;96589.75;2094874;28;20191;-63
2023/08/14 08:19:46;;;;;;;5.53;2.30;;;;;;;25.99;72.57;96587.91;2094241;28;20224;-63
2023/08/14 08:20:47;;;;;;;5.50;1.95;;;;;;;25.98;73.71;96592.41;2093027;28;20219;-63
2023/08/14 08:21:49;;;;;;;3.30;2.08;;;;;;;26.66;72.38;96597.56;2094986;28;20385;-63
2023/08/14 08:22:51;;;;;;;7.07;2.10;;;;;;;26.68;71.22;96588.34;2094494;28;20562;-64
2023/08/14 08:23:52;;;;;;;6.97;4.60;;;;;;;26.62;70.56;96597.06;2090827;28;20205;-63
2023/08/14 08:24:54;;;;;;;3.75;1.92;;;;;;;26.69;72.16;96600.75;2089269;28;20192;-62
2023/08/14 08:25:56;;;;;;;6.65;3.95;;;;;;;26.60;70.44;96596.41;2087544;28;20322;-64
2023/08/14 08:26:57;;;;;;;4.10;1.77;;;;;;;26.54;71.10;96595.25;2087097;28;20287;-64
2023/08/14 08:27:59;;;;;;;5.57;1.90;;;;;;;26.30;72.42;96592.63;2089029;28;20648;-64
2023/08/14 08:29:00;;;;;;;9.48;2.63;;;;;;;26.49;71.73;96597.59;2088881;28;20222;-64
2023/08/14 08:30:02;;;;;;;5.60;2.08;;;;;;;26.01;73.33;96600.09;2088898;28;20234;-63
2023/08/14 08:31:04;;;;;;;3.30;2.05;;;;;;;26.34;73.04;96604.66;2088808;28;20285;-63
2023/08/14 08:32:05;;;;;;;3.28;2.08;;;;;;;26.30;72.21;96603.31;2089244;28;20683;-63
2023/08/14 08:33:07;;;;;;;5.03;2.60;;;;;;;26.58;72.49;96613.66;2089228;28;20297;-63
2023/08/14 08:34:09;;;;;;;2.80;1.70;;;;;;;26.44;72.49;96605.31;2089393;28;20197;-63
2023/08/14 08:35:10;;;;;;;3.72;2.20;;;;;;;26.26;73.25;96608.16;2087882;28;20200;-63
2023/08/14 08:36:12;;;;;;;4.32;2.22;;;;;;;26.49;71.84;96605.63;2080851;28;20193;-63
2023/08/14 08:37:16;;;;;;;2.70;2.00;;;;;;;26.81;72.28;96601.22;2080699;28;20231;-63
2023/08/14 08:38:18;;;;;;;5.05;2.30;;;;;;;26.86;71.59;96606.91;2080546;28;20201;-63
2023/08/14 08:39:20;;;;;;;7.20;2.60;;;;;;;26.81;72.00;96606.59;2080780;28;20289;-63
2023/08/14 08:40:22;;;;;;;4.80;2.70;;;;;;;26.83;71.79;96604.59;2079534;28;20197;-63
2023/08/14 08:41:35;;;;;;;6.22;2.28;;;;;;;26.73;70.44;96599.41;2081438;28;20204;-63
2023/08/14 08:42:38;;;;;;;6.80;2.72;;;;;;;27.18;71.24;96606.97;2081093;28;20718;-63
2023/08/14 08:43:40;;;;;;;9.38;2.85;;;;;;;27.09;72.30;96602.66;2080059;28;20280;-63
2023/08/14 08:44:45;;;;;;;4.18;2.03;;;;;;;27.03;71.80;96596.13;2080520;28;20193;-63
2023/08/14 08:45:50;;;;;;;3.50;2.25;;;;;;;27.23;71.54;96606.44;2080506;28;20221;-63
2023/08/14 08:47:19;;;;;;;5.57;2.70;;;;;;;27.16;70.59;96607.16;2080787;28;20201;-63
2023/08/14 08:48:22;;;;;;;5.35;2.47;;;;;;;27.17;70.38;96610.66;2080111;28;20549;-63
2023/08/14 08:49:24;;;;;;;6.13;2.40;;;;;;;27.46;70.83;96607.34;2080320;28;20213;-63
2023/08/14 08:50:30;;;;;;;6.35;2.60;;;;;;;27.59;69.26;96605.94;2080526;28;20291;-63
2023/08/14 08:51:33;;;;;;;6.60;2.53;;;;;;;27.30;70.15;96605.56;2081032;28;20280;-63
2023/08/14 08:52:35;;;;;;;4.72;2.33;;;;;;;27.14;70.95;96601.13;2080990;28;20258;-63
2023/08/14 08:53:37;;;;;;;5.97;2.40;;;;;;;27.34;69.76;96609.56;2079482;28;20258;-63
2023/08/14 08:54:39;;;;;;;11.38;3.33;;;;;;;27.40;69.77;96605.41;2080990;28;20194;-63
2023/08/14 08:55:41;;;;;;;4.35;2.78;;;;;;;27.47;69.79;96603.66;2080296;28;21153;-63
2023/08/14 08:56:44;;;;;;;4.37;2.43;;;;;;;27.73;68.90;96607.91;2080834;28;20204;-63
2023/08/14 08:57:48;;;;;;;7.70;2.70;;;;;;;27.59;68.83;96601.44;2081010;28;20422;-63
2023/08/14 08:58:51;;;;;;;6.00;2.90;;;;;;;27.61;68.99;96607.44;2081004;28;20288;-63
2023/08/14 08:59:54;;;;;;;4.72;2.80;;;;;;;28.24;68.67;96598.47;2080704;28;20305;-63
2023/08/14 09:00:57;;;;;;;6.72;2.72;;;;;;;28.21;68.98;96598.84;2079156;28;20227;-63
2023/08/14 09:01:59;;;;;;;10.40;3.45;;;;;;;28.08;68.45;96594.91;2080843;28;20616;-63
2023/08/14 09:03:00;;;;;;;4.00;2.63;;;;;;;28.00;68.50;96597.63;2079882;28;20640;-63
2023/08/14 09:04:02;;;;;;;5.20;2.67;;;;;;;27.57;69.90;96603.44;2080836;28;20426;-63
2023/08/14 09:05:05;;;;;;;5.60;2.77;;;;;;;27.45;70.12;96608.38;2080161;28;20437;-63
2023/08/14 09:06:06;;;;;;;10.40;2.85;;;;;;;27.45;70.24;96610.22;2080205;28;20450;-63
2023/08/14 09:07:08;;;;;;;7.72;2.67;;;;;;;27.60;68.88;96604.94;2080331;28;20197;-63
2023/08/14 09:08:09;;;;;;;7.45;2.95;;;;;;;27.79;68.57;96611.69;2079672;28;20254;-63
2023/08/14 09:09:14;;;;;;;5.30;3.03;;;;;;;27.72;68.95;96606.22;2080003;28;20197;-62
2023/08/14 09:10:16;;;;;;;9.83;2.40;;;;;;;27.86;69.14;96616.16;2079889;28;20517;-63
2023/08/14 09:11:18;;;;;;;6.73;2.87;;;;;;;27.92;68.85;96606.59;2081001;28;20433;-62
2023/08/14 09:12:19;;;;;;;6.30;3.50;;;;;;;28.02;69.85;96600.97;2080906;28;20462;-63
2023/08/14 09:13:22;;;;;;;13.50;7.40;;;;;;;28.01;69.09;96608.19;2080727;28;20489;-61
2023/08/14 09:14:32;;;;;;;45.03;32.33;;;;;;;28.26;68.75;96602.63;2080644;28;20426;-61
2023/08/14 09:15:34;;;;;;;7.80;3.60;;;;;;;28.67;67.90;96604.13;2080121;28;20469;-62
2023/08/14 09:16:38;;;;;;;7.40;4.03;;;;;;;28.29;67.65;96604.13;2079775;28;20430;-63
2023/08/14 09:17:40;;;;;;;7.10;3.10;;;;;;;28.25;67.71;96608.19;2080843;28;20419;-62
2023/08/14 09:18:43;;;;;;;4.90;2.33;;;;;;;28.18;67.72;96600.84;2080477;28;20422;-62
2023/08/14 09:19:45;;;;;;;4.23;3.07;;;;;;;28.01;69.10;96604.66;2080174;28;20457;-63
2023/08/14 09:20:46;;;;;;;4.33;2.77;;;;;;;28.12;68.10;96598.88;2080275;28;20508;-62
2023/08/14 09:21:48;;;;;;;7.43;2.77;;;;;;;28.73;68.62;96600.69;2080918;28;20448;-62
2023/08/14 09:22:55;;;;;;;6.53;3.07;;;;;;;28.58;66.36;96594.47;2080449;28;20501;-60
2023/08/14 09:23:57;;;;;;;5.60;3.00;;;;;;;28.57;68.08;96598.16;2080542;28;21033;-61
2023/08/14 09:25:00;;;;;;;6.90;2.83;;;;;;;28.56;68.46;96591.97;2080361;28;20438;-61
2023/08/14 09:26:02;;;;;;;6.57;2.53;;;;;;;28.60;68.75;96595.13;2079573;28;20519;-61
2023/08/14 09:27:04;;;;;;;5.07;2.90;;;;;;;28.57;67.64;96596.31;2079694;28;20434;-61
2023/08/14 09:28:10;;;;;;;7.63;3.10;;;;;;;28.61;66.96;96588.72;2080554;28;20454;-60
2023/08/14 09:29:15;;;;;;;4.60;2.80;;;;;;;28.84;67.00;96591.38;2080324;28;20437;-60
2023/08/14 09:30:24;;;;;;;5.80;3.20;;;;;;;29.04;67.58;96583.56;2079865;28;20446;-60
2023/08/14 09:31:30;;;;;;;4.90;2.87;;;;;;;29.14;66.91;96583.28;2079893;28;20438;-60
2023/08/14 09:32:32;;;;;;;9.17;3.57;;;;;;;29.24;67.29;96586.53;2080398;28;20458;-60
2023/08/14 09:33:36;;;;;;;6.07;3.40;;;;;;;28.69;66.84;96582.47;2080370;28;21073;-60
2023/08/14 09:34:38;;;;;;;6.37;2.60;;;;;;;29.07;66.36;96588.56;2080436;28;20468;-63
2023/08/14 09:35:39;;;;;;;6.37;3.30;;;;;;;29.18;66.16;96581.91;2079014;28;20454;-60
2023/08/14 09:36:41;;;;;;;11.60;3.17;;;;;;;29.00;67.59;96582.25;2080178;28;20430;-60
2023/08/14 09:37:43;;;;;;;4.33;3.13;;;;;;;29.21;65.22;96584.19;2079963;28;20430;-60
2023/08/14 09:38:44;;;;;;;7.33;3.07;;;;;;;29.52;64.49;96593.88;2080280;28;20517;-60
2023/08/14 09:39:46;;;;;;;10.73;3.43;;;;;;;29.48;64.16;96597.97;2080416;28;20422;-60
2023/08/14 09:40:47;;;;;;;4.33;3.17;;;;;;;29.49;64.05;96589.72;2080041;28;20915;-60
2023/08/14 09:41:49;;;;;;;8.10;2.67;;;;;;;29.42;65.41;96586.13;2080566;28;20479;-60
2023/08/14 09:42:51;;;;;;;5.30;3.10;;;;;;;29.84;65.18;96589.06;2080282;28;21047;-60
2023/08/14 09:43:53;;;;;;;9.37;2.50;;;;;;;30.57;63.95;96590.78;2080614;28;20418;-60
2023/08/14 09:44:54;;;;;;;4.60;3.03;;;;;;;30.25;62.37;96590.28;2080736;28;20442;-60
2023/08/14 09:45:58;;;;;;;3.63;2.80;;;;;;;30.44;62.12;96588.78;2079837;28;20590;-60
2023/08/14 09:47:00;;;;;;;8.60;2.90;;;;;;;30.39;61.72;96597.44;2080477;28;20438;-60
2023/08/14 09:48:03;;;;;;;6.57;3.80;;;;;;;29.96;61.96;96592.09;2080037;28;20800;-62
2023/08/14 09:49:06;;;;;;;4.30;2.73;;;;;;;30.16;62.52;96588.75;2080527;28;20480;-60
2023/08/14 09:50:08;;;;;;;3.67;2.90;;;;;;;29.53;63.82;96584.78;2079973;28;20430;-60
2023/08/14 09:51:11;;;;;;;5.37;2.97;;;;;;;29.74;64.12;96588.56;2080055;28;20434;-60
2023/08/14 09:52:13;;;;;;;5.00;2.80;;;;;;;30.40;62.39;96587.53;2074427;28;20442;-61
2023/08/14 09:53:14;;;;;;;5.40;3.50;;;;;;;30.82;61.36;96590.28;2074567;28;20454;-61
2023/08/14 09:54:16;;;;;;;7.10;3.17;;;;;;;30.55;61.12;96587.44;2079897;28;20542;-61
2023/08/14 09:55:17;;;;;;;4.80;2.57;;;;;;;30.40;62.45;96588.34;2079636;28;20886;-61
2023/08/14 09:56:19;;;;;;;4.67;3.07;;;;;;;30.14;63.68;96591.63;2079229;28;20607;-61
2023/08/14 09:57:23;;;;;;;6.73;3.30;;;;;;;29.79;63.73;96583.44;2080261;28;21183;-61
2023/08/14 09:58:29;;;;;;;8.07;2.83;;;;;;;29.55;63.80;96581.94;2079193;28;20430;-62
2023/08/14 09:59:31;;;;;;;9.00;3.57;;;;;;;29.92;63.94;96580.88;2080388;28;20480;-62
2023/08/14 10:00:33;;;;;;;3.70;2.97;;;;;;;30.78;61.84;96588.00;2079951;28;20461;-61
2023/08/14 10:01:36;;;;;;;4.87;2.60;;;;;;;31.33;61.89;96586.44;2079921;28;20504;-61
2023/08/14 10:02:40;;;;;;;7.03;2.90;;;;;;;31.17;60.08;96593.00;2080163;28;21350;-61
2023/08/14 10:03:43;;;;;;;6.33;3.07;;;;;;;30.95;60.10;96587.69;2080267;28;20446;-61
2023/08/14 10:04:46;;;;;;;6.87;3.10;;;;;;;29.94;62.77;96586.91;2079226;28;20525;-61
2023/08/14 10:05:47;;;;;;;5.53;2.70;;;;;;;30.59;61.28;96581.47;2079799;28;20458;-63
2023/08/14 10:06:51;;;;;;;5.53;3.07;;;;;;;30.70;60.46;96588.19;2080449;28;20422;-64
2023/08/14 10:07:54;;;;;;;7.20;3.60;;;;;;;30.14;60.84;96588.94;2075451;28;20418;-67
2023/08/14 10:08:57;;;;;;;5.77;3.10;;;;;;;30.28;60.98;96584.50;2067763;28;20538;-63
2023/08/14 10:10:03;;;;;;;5.60;2.70;;;;;;;30.15;62.20;96581.72;2079860;28;20430;-63
2023/08/14 10:11:07;;;;;;;7.20;2.97;;;;;;;30.19;61.88;96580.31;2079700;28;20694;-63
2023/08/14 10:12:29;;;;;;;7.37;2.80;;;;;;;30.04;61.79;96583.91;2080207;28;20469;-62
2023/08/14 10:13:32;;;;;;;5.70;3.10;;;;;;;29.94;62.76;96581.53;2079847;28;20430;-62
2023/08/14 10:14:36;;;;;;;9.47;3.43;;;;;;;29.93;61.53;96582.56;2079070;28;20422;-62
2023/08/14 10:15:43;;;;;;;6.60;3.30;;;;;;;30.39;62.03;96569.69;2079825;28;20848;-63
2023/08/14 10:16:48;;;;;;;5.43;2.97;;;;;;;31.28;61.09;96584.34;2080080;28;20457;-63
2023/08/14 10:17:55;;;;;;;6.17;3.17;;;;;;;32.10;59.97;96575.44;2080085;28;20756;-62
2023/08/14 10:19:00;;;;;;;5.97;3.07;;;;;;;32.31;56.66;96574.44;2079631;28;20456;-62
2023/08/14 10:20:03;;;;;;;6.83;3.10;;;;;;;31.45;58.00;96575.91;2080430;28;20430;-62
2023/08/14 10:21:11;;;;;;;5.23;2.60;;;;;;;31.12;58.75;96574.72;2080043;28;20462;-62
2023/08/14 10:22:13;;;;;;;6.03;3.53;;;;;;;30.35;59.14;96582.72;2079192;28;20434;-62
2023/08/14 10:23:16;;;;;;;9.10;2.93;;;;;;;30.69;58.23;96580.28;2080205;28;21294;-62
2023/08/14 10:24:18;;;;;;;7.10;2.63;;;;;;;30.43;58.98;96587.13;2079961;28;20423;-63
2023/08/14 10:25:22;;;;;;;4.90;2.80;;;;;;;29.81;60.09;96584.91;2079917;28;20437;-62
2023/08/14 10:26:25;;;;;;;6.20;2.90;;;;;;;29.97;60.28;96583.84;2080243;28;20446;-63
2023/08/14 10:27:30;;;;;;;6.97;3.33;;;;;;;30.50;58.42;96579.09;2080073;28;20454;-62
2023/08/14 10:28:31;;;;;;;9.90;3.20;;;;;;;30.57;58.66;96588.06;2080005;28;20786;-62
2023/08/14 10:29:34;;;;;;;6.40;3.13;;;;;;;30.82;58.68;96577.66;2080251;28;20426;-63
2023/08/14 10:30:36;;;;;;;5.90;3.00;;;;;;;31.25;58.62;96582.06;2079889;28;21014;-62
2023/08/14 10:31:38;;;;;;;7.93;3.33;;;;;;;30.81;57.92;96578.69;2080262;28;20780;-62
2023/08/14 10:32:41;;;;;;;6.20;2.70;;;;;;;31.02;57.18;96585.88;2080059;28;20422;-62
2023/08/14 10:33:43;;;;;;;3.67;2.40;;;;;;;31.44;56.97;96580.47;2079919;28;20438;-62
2023/08/14 10:34:46;;;;;;;7.90;2.50;;;;;;;30.81;58.15;96581.38;2079776;28;20450;-62
2023/08/14 10:35:53;;;;;;;6.63;3.27;;;;;;;30.24;58.29;96581.38;2078297;28;20840;-61
2023/08/14 10:36:55;;;;;;;5.67;2.87;;;;;;;30.37;57.75;96586.06;2079380;28;20423;-62
2023/08/14 10:37:57;;;;;;;6.17;3.07;;;;;;;30.34;58.62;96581.03;2071984;28;20451;-62
2023/08/14 10:39:11;;;;;;;5.00;2.57;;;;;;;30.43;58.67;96584.41;2079758;28;20433;-62
2023/08/14 10:40:22;;;;;;;5.53;2.60;;;;;;;30.19;60.01;96583.81;2079584;28;20475;-61
2023/08/14 10:41:23;;;;;;;5.03;2.60;;;;;;;30.12;59.45;96586.47;2079675;28;20437;-62
2023/08/14 10:42:25;;;;;;;3.93;2.50;;;;;;;30.31;58.15;96586.81;2080265;28;20564;-62
2023/08/14 10:43:28;;;;;;;3.37;2.97;;;;;;;30.87;58.51;96583.28;2080216;28;20819;-62
2023/08/14 10:44:33;;;;;;;6.90;2.93;;;;;;;30.76;58.83;96587.38;2079889;28;20426;-62
2023/08/14 10:45:35;;;;;;;5.00;2.90;;;;;;;30.20;58.46;96587.34;2079385;28;20462;-62
2023/08/14 10:46:43;;;;;;;11.60;3.40;;;;;;;30.70;58.35;96585.47;2078873;28;20466;-62
2023/08/14 10:47:45;;;;;;;19.27;3.20;;;;;;;30.58;58.49;96585.19;2079353;28;20465;-63
2023/08/14 10:48:49;;;;;;;3.60;2.30;;;;;;;30.20;58.37;96590.06;2079607;28;20418;-62
2023/08/14 10:49:51;;;;;;;5.03;2.80;;;;;;;30.76;58.11;96592.75;2079285;28;20521;-62
2023/08/14 10:51:01;;;;;;;5.63;3.13;;;;;;;30.57;58.67;96588.91;2079464;28;20481;-62
2023/08/14 10:52:03;;;;;;;6.47;2.93;;;;;;;29.68;60.57;96590.13;2080077;28;20439;-62
2023/08/14 10:53:05;;;;;;;8.40;3.80;;;;;;;29.07;62.74;96591.25;2079978;28;20434;-62
2023/08/14 10:54:14;;;;;;;7.10;2.90;;;;;;;29.31;62.12;96592.81;2079962;28;20928;-62
2023/08/14 10:55:22;;;;;;;4.47;2.77;;;;;;;29.97;60.71;96588.41;2079081;28;20430;-62
2023/08/14 10:56:39;;;;;;;4.83;2.83;;;;;;;29.25;60.89;96593.53;2080115;28;20483;-62
2023/08/14 10:57:40;;;;;;;6.20;3.10;;;;;;;29.59;60.57;96583.22;2079625;28;20426;-63
2023/08/14 10:58:49;;;;;;;8.47;3.43;;;;;;;29.69;61.35;96590.97;2080044;28;20427;-62
2023/08/14 10:59:56;;;;;;;7.70;3.17;;;;;;;29.34;62.51;96588.94;2080081;28;20537;-62
2023/08/14 11:00:59;;;;;;;7.80;3.60;;;;;;;29.99;60.81;96597.09;2078647;28;20469;-62
2023/08/14 11:02:10;;;;;;;8.17;2.23;;;;;;;29.79;60.05;96592.31;2080023;28;21006;-62
2023/08/14 11:03:12;;;;;;;8.80;3.07;;;;;;;29.77;61.35;96594.38;2094449;28;20467;-62
2023/08/14 11:04:13;;;;;;;4.77;3.20;;;;;;;30.21;60.02;96602.50;2095457;28;20448;-62
2023/08/14 11:05:17;;;;;;;7.47;3.27;;;;;;;30.08;59.77;96598.66;2079644;28;20471;-62
2023/08/14 11:06:26;;;;;;;5.63;3.00;;;;;;;30.03;59.62;96595.69;2079952;28;20426;-62
2023/08/14 11:07:29;;;;;;;6.33;3.03;;;;;;;30.59;59.13;96594.94;2079690;28;20445;-63
2023/08/14 11:08:31;;;;;;;7.07;3.00;;;;;;;30.81;57.82;96594.88;2079874;28;20431;-62
2023/08/14 11:09:36;;;;;;;6.40;2.77;;;;;;;31.50;57.02;96587.72;2080166;28;20801;-62
2023/08/14 11:10:39;;;;;;;6.07;3.40;;;;;;;31.73;57.65;96597.38;2079346;28;20450;-63
2023/08/14 11:11:47;;;;;;;4.87;3.10;;;;;;;31.59;56.18;96594.63;2080000;28;20430;-63
2023/08/14 11:12:49;;;;;;;6.80;2.70;;;;;;;32.28;55.63;96593.72;2079640;28;20483;-62
2023/08/14 11:13:51;;;;;;;5.47;3.07;;;;;;;31.73;56.52;96587.44;2079921;28;20894;-63
2023/08/14 11:14:54;;;;;;;4.37;2.93;;;;;;;31.45;55.98;96590.22;2080020;28;21104;-64
2023/08/14 11:15:56;;;;;;;6.83;3.27;;;;;;;31.48;56.64;96595.22;2079561;28;20981;-63
2023/08/14 11:16:58;;;;;;;4.90;3.43;;;;;;;32.43;54.56;96580.88;2080000;28;20422;-62
2023/08/14 11:18:01;;;;;;;6.23;3.37;;;;;;;32.39;54.74;96580.47;2079285;28;20426;-63
2023/08/14 11:19:04;;;;;;;4.57;2.90;;;;;;;32.61;55.18;96569.41;2079604;28;20460;-62
2023/08/14 11:20:10;;;;;;;5.03;2.93;;;;;;;33.24;52.56;96569.88;2078919;28;20594;-62
2023/08/14 11:21:13;;;;;;;6.07;2.63;;;;;;;34.27;51.00;96573.47;2079228;28;20434;-63
2023/08/14 11:22:31;;;;;;;7.10;2.83;;;;;;;34.07;51.01;96570.91;2079019;28;20789;-63
2023/08/14 11:23:33;;;;;;;6.27;3.00;;;;;;;33.82;50.56;96571.72;2079911;28;20863;-63
2023/08/14 11:24:36;;;;;;;7.70;2.83;;;;;;;33.78;51.45;96568.59;2079789;28;20480;-63
2023/08/14 11:25:38;;;;;;;6.60;2.83;;;;;;;33.89;49.84;96569.81;2079428;28;20486;-62
2023/08/14 11:26:40;;;;;;;7.03;2.70;;;;;;;34.52;49.00;96567.25;2079915;28;20514;-63
2023/08/14 11:27:48;;;;;;;5.43;3.00;;;;;;;33.84;49.20;96572.34;2079992;28;20434;-63
2023/08/14 11:28:49;;;;;;;10.93;2.70;;;;;;;34.45;48.63;96573.56;2078887;28;20480;-63
2023/08/14 11:29:51;;;;;;;4.13;2.67;;;;;;;34.43;47.47;96572.13;2079637;28;20460;-63
2023/08/14 11:30:58;;;;;;;6.33;2.40;;;;;;;34.14;52.78;96569.00;2078310;28;20466;-62
2023/08/14 11:32:00;;;;;;;8.43;2.67;;;;;;;33.96;54.15;96572.47;2079744;28;20692;-62
2023/08/14 11:33:06;;;;;;;4.23;2.07;;;;;;;33.74;55.16;96572.78;2078989;28;20433;-62
2023/08/14 11:34:08;;;;;;;9.53;2.67;;;;;;;33.92;55.10;96572.06;2078056;28;20804;-63
2023/08/14 11:35:10;;;;;;;5.43;2.70;;;;;;;33.34;56.16;96567.59;2079233;28;20485;-63
2023/08/14 11:36:11;;;;;;;3.43;1.93;;;;;;;33.31;56.56;96568.03;2079706;28;20454;-63
2023/08/14 11:37:13;;;;;;;8.77;2.63;;;;;;;33.30;56.47;96567.19;2079707;28;20434;-63
2023/08/14 11:38:17;;;;;;;5.07;2.27;;;;;;;32.97;57.04;96564.59;2079437;28;20434;-63
2023/08/14 11:39:19;;;;;;;8.17;2.57;;;;;;;33.07;56.44;96564.97;2078558;28;21329;-63
2023/08/14 11:40:20;;;;;;;4.23;2.60;;;;;;;33.32;56.46;96564.25;2079404;28;20897;-63
2023/08/14 11:41:22;;;;;;;6.67;2.50;;;;;;;33.85;55.94;96574.84;2079871;28;20484;-63
2023/08/14 11:42:33;;;;;;;8.33;2.67;;;;;;;34.01;55.20;96581.56;2079682;28;20430;-63
2023/08/14 11:43:38;;;;;;;6.63;2.80;;;;;;;34.05;53.83;96581.97;2079813;28;20437;-63
2023/08/14 11:44:40;;;;;;;5.37;1.90;;;;;;;33.85;54.96;96591.06;2079938;28;20427;-63
2023/08/14 11:45:42;;;;;;;5.87;2.17;;;;;;;34.08;54.30;96581.56;2079458;28;20454;-63
2023/08/14 11:46:44;;;;;;;5.80;2.57;;;;;;;33.71;55.57;96575.91;2080019;28;20431;-63
2023/08/14 11:47:47;;;;;;;7.20;3.00;;;;;;;33.82;55.32;96571.72;2079306;28;20454;-63
2023/08/14 11:48:49;;;;;;;3.20;2.27;;;;;;;33.23;56.45;96569.06;2079133;28;20422;-63
2023/08/14 11:49:50;;;;;;;6.60;2.50;;;;;;;32.47;57.92;96556.94;2079795;28;20473;-63
2023/08/14 11:50:53;;;;;;;4.67;2.13;;;;;;;31.99;59.09;96560.69;2079376;28;20454;-63
2023/08/14 11:51:54;;;;;;;4.53;2.20;;;;;;;31.40;59.33;96566.56;2079887;28;20526;-63
2023/08/14 11:52:56;;;;;;;6.83;2.80;;;;;;;30.69;60.60;96586.50;2079990;28;20514;-63
2023/08/14 11:53:59;;;;;;;9.00;2.30;;;;;;;30.69;61.09;96597.28;2078948;28;20426;-62
2023/08/14 11:55:01;;;;;;;9.03;4.13;;;;;;;30.20;62.60;96603.50;2079861;28;20549;-62
2023/08/14 11:56:03;;;;;;;11.77;5.10;;;;;;;29.72;64.03;96626.38;2079571;28;20461;-62
2023/08/14 11:57:07;;;;;;;12.60;4.30;;;;;;;28.29;69.61;96628.28;2079967;28;20847;-62
2023/08/14 12:04:32;;;;;;;14.70;6.00;;;;;;;22.23;96.92;96628.72;2081795;28;20549;-66
2023/08/14 12:05:33;;;;;;;11.77;5.38;;;;;;;22.21;91.48;96612.09;2080759;28;20212;-66
2023/08/14 12:06:35;;;;;;;8.40;4.20;;;;;;;22.50;88.47;96606.75;2079093;28;20205;-66
2023/08/14 12:07:41;;;;;;;11.23;4.72;;;;;;;22.98;89.08;96620.00;2083559;28;20200;-64
2023/08/14 12:08:43;;;;;;;11.73;5.20;;;;;;;23.15;89.02;96629.91;2083082;28;20762;-63
2023/08/14 12:09:44;;;;;;;13.90;4.70;;;;;;;23.18;89.29;96626.13;2082721;28;20196;-63
2023/08/14 12:10:47;;;;;;;11.93;5.03;;;;;;;23.41;93.71;96636.38;2082715;28;20217;-63
2023/08/14 12:11:49;;;;;;;14.32;4.65;;;;;;;24.13;88.39;96637.28;2082922;28;20291;-62
2023/08/14 12:12:51;;;;;;;15.80;4.22;;;;;;;24.71;86.22;96640.41;2081784;28;20269;-63
2023/08/14 12:13:56;;;;;;;10.88;5.10;;;;;;;25.76;85.98;96647.38;2082682;28;20192;-62